createdAt,value
2022-09-03T00:01:51.861Z,18.40
2022-09-03T00:05:08.000Z,18.40
2022-09-03T00:07:55.573Z,18.40
2022-09-03T00:10:43.483Z,18.40
2022-09-03T00:13:13.905Z,18.30
2022-09-03T00:15:41.017Z,18.30
2022-09-03T00:18:18.206Z,18.30
2022-09-03T00:21:10.149Z,18.20
2022-09-03T00:23:41.093Z,18.20
2022-09-03T00:26:13.481Z,18.20
2022-09-03T00:28:43.299Z,18.20
2022-09-03T00:31:39.217Z,18.10
2022-09-03T00:34:39.238Z,18.10
2022-09-03T00:37:07.425Z,18.10
2022-09-03T00:39:41.363Z,18.00
2022-09-03T00:42:39.959Z,18.00
2022-09-03T00:45:15.729Z,17.90
2022-09-03T00:48:17.372Z,17.90
2022-09-03T00:50:53.329Z,17.90
2022-09-03T00:53:34.702Z,17.80
2022-09-03T00:56:16.040Z,17.90
2022-09-03T00:59:16.754Z,17.90
2022-09-03T01:01:43.749Z,17.80
2022-09-03T01:04:28.338Z,17.70
2022-09-03T01:06:58.908Z,17.70
2022-09-03T01:09:53.862Z,17.70
2022-09-03T01:12:37.892Z,17.70
2022-09-03T01:15:37.509Z,17.60
2022-09-03T01:18:34.655Z,17.60
2022-09-03T01:21:11.822Z,17.60
2022-09-03T01:23:59.959Z,17.60
2022-09-03T01:26:45.253Z,17.60
2022-09-03T01:29:32.118Z,17.70
2022-09-03T01:32:11.880Z,17.70
2022-09-03T01:35:19.206Z,17.70
2022-09-03T01:38:03.710Z,17.60
2022-09-03T01:40:36.125Z,17.70
2022-09-03T01:43:24.146Z,17.70
2022-09-03T01:46:00.532Z,17.70
2022-09-03T01:48:46.561Z,17.60
2022-09-03T01:51:22.553Z,17.60
2022-09-03T01:54:20.772Z,17.60
2022-09-03T01:57:34.754Z,17.60
2022-09-03T02:00:03.470Z,17.60
2022-09-03T02:02:32.646Z,17.50
2022-09-03T02:05:24.670Z,17.50
2022-09-03T02:07:58.076Z,17.50
2022-09-03T02:10:33.457Z,17.50
2022-09-03T02:13:04.482Z,17.50
2022-09-03T02:15:32.632Z,17.40
2022-09-03T02:18:04.276Z,17.40
2022-09-03T02:20:31.211Z,17.40
2022-09-03T02:22:58.946Z,17.50
2022-09-03T02:25:33.451Z,17.50
2022-09-03T02:28:00.907Z,17.50
2022-09-03T02:30:27.804Z,17.40
2022-09-03T02:32:54.454Z,17.40
2022-09-03T02:35:21.147Z,17.40
2022-09-03T02:37:47.769Z,17.40
2022-09-03T02:40:14.378Z,17.30
2022-09-03T02:42:41.569Z,17.40
2022-09-03T02:45:29.418Z,17.30
2022-09-03T02:47:59.651Z,17.30
2022-09-03T02:50:26.653Z,17.30
2022-09-03T02:52:53.522Z,17.30
2022-09-03T02:55:20.739Z,17.40
2022-09-03T02:57:47.387Z,17.30
2022-09-03T03:00:14.719Z,17.20
2022-09-03T03:02:41.976Z,17.30
2022-09-03T03:05:13.415Z,17.20
2022-09-03T03:07:40.978Z,17.20
2022-09-03T03:10:08.461Z,17.20
2022-09-03T03:12:35.361Z,17.10
2022-09-03T03:15:02.078Z,17.10
2022-09-03T03:17:28.858Z,17.10
2022-09-03T03:19:55.576Z,17.10
2022-09-03T03:22:22.245Z,17.10
2022-09-03T03:24:50.515Z,17.10
2022-09-03T03:27:17.196Z,17.10
2022-09-03T03:29:43.869Z,17.10
2022-09-03T03:32:10.579Z,17.10
2022-09-03T03:34:37.637Z,17.00
2022-09-03T03:37:05.854Z,17.00
2022-09-03T03:39:32.617Z,17.00
2022-09-03T03:41:59.645Z,17.00
2022-09-03T03:44:26.480Z,16.90
2022-09-03T03:46:54.176Z,16.90
2022-09-03T03:49:20.814Z,17.10
2022-09-03T03:51:47.440Z,16.90
2022-09-03T03:54:14.513Z,16.90
2022-09-03T03:56:44.268Z,16.80
2022-09-03T03:59:13.542Z,16.80
2022-09-03T04:01:40.900Z,16.80
2022-09-03T04:04:07.578Z,16.80
2022-09-03T04:06:34.215Z,16.70
2022-09-03T04:09:00.869Z,16.70
2022-09-03T04:11:27.692Z,16.70
2022-09-03T04:13:54.609Z,16.70
2022-09-03T04:16:23.851Z,16.60
2022-09-03T04:18:50.645Z,16.60
2022-09-03T04:21:20.439Z,16.60
2022-09-03T04:23:48.882Z,16.50
2022-09-03T04:26:18.246Z,16.50
2022-09-03T04:28:45.546Z,16.40
2022-09-03T04:31:14.379Z,16.40
2022-09-03T04:33:42.293Z,16.30
2022-09-03T04:36:11.810Z,16.30
2022-09-03T04:38:42.542Z,16.30
2022-09-03T04:41:12.149Z,16.30
2022-09-03T04:43:39.530Z,16.30
2022-09-03T04:46:10.843Z,16.30
2022-09-03T04:48:43.919Z,16.20
2022-09-03T04:51:16.183Z,16.20
2022-09-03T04:53:49.898Z,16.20
2022-09-03T04:56:19.434Z,16.20
2022-09-03T04:58:49.342Z,16.10
2022-09-03T05:01:20.329Z,16.10
2022-09-03T05:03:47.565Z,16.10
2022-09-03T05:06:17.127Z,16.00
2022-09-03T05:08:48.819Z,16.00
2022-09-03T05:11:17.813Z,16.00
2022-09-03T05:13:48.070Z,16.00
2022-09-03T05:16:15.442Z,15.90
2022-09-03T05:18:42.373Z,15.90
2022-09-03T05:21:13.248Z,15.90
2022-09-03T05:23:47.642Z,15.90
2022-09-03T05:26:17.301Z,15.90
2022-09-03T05:28:44.993Z,15.90
2022-09-03T05:31:13.139Z,15.90
2022-09-03T05:33:43.282Z,15.90
2022-09-03T05:36:12.629Z,15.90
2022-09-03T05:38:39.642Z,15.90
2022-09-03T05:41:08.943Z,15.80
2022-09-03T05:43:36.134Z,15.90
2022-09-03T05:46:09.087Z,15.90
2022-09-03T05:48:37.700Z,15.90
2022-09-03T05:51:08.165Z,15.90
2022-09-03T05:53:37.355Z,16.00
2022-09-03T05:56:07.144Z,16.00
2022-09-03T05:58:35.911Z,15.90
2022-09-03T06:01:23.591Z,15.90
2022-09-03T06:03:55.605Z,16.00
2022-09-03T06:06:25.436Z,16.00
2022-09-03T06:08:58.037Z,16.10
2022-09-03T06:11:29.582Z,16.10
2022-09-03T06:13:57.524Z,16.10
2022-09-03T06:16:31.700Z,16.10
2022-09-03T06:19:02.351Z,16.20
2022-09-03T06:21:29.198Z,16.20
2022-09-03T06:23:59.487Z,16.30
2022-09-03T06:26:28.579Z,16.40
2022-09-03T06:28:56.932Z,16.50
2022-09-03T06:31:24.205Z,16.50
2022-09-03T06:33:51.854Z,16.60
2022-09-03T06:36:20.097Z,16.70
2022-09-03T06:38:47.660Z,16.60
2022-09-03T06:41:24.975Z,16.60
2022-09-03T06:44:04.572Z,16.60
2022-09-03T06:46:33.441Z,16.60
2022-09-03T06:49:00.402Z,16.60
2022-09-03T06:51:29.069Z,16.60
2022-09-03T06:54:01.331Z,16.60
2022-09-03T06:56:28.228Z,16.50
2022-09-03T06:58:57.424Z,16.60
2022-09-03T07:01:26.860Z,16.70
2022-09-03T07:03:58.373Z,16.70
2022-09-03T07:06:27.403Z,16.80
2022-09-03T07:08:54.578Z,16.80
2022-09-03T07:11:24.022Z,16.80
2022-09-03T07:13:52.082Z,16.80
2022-09-03T07:16:21.120Z,16.90
2022-09-03T07:18:50.765Z,16.90
2022-09-03T07:21:19.783Z,17.00
2022-09-03T07:23:47.526Z,17.00
2022-09-03T07:26:17.953Z,17.10
2022-09-03T07:28:45.981Z,17.10
2022-09-03T07:31:27.663Z,17.20
2022-09-03T07:34:03.941Z,17.20
2022-09-03T07:36:47.708Z,17.30
2022-09-03T07:39:17.711Z,17.30
2022-09-03T07:41:46.202Z,17.40
2022-09-03T07:44:16.060Z,17.50
2022-09-03T07:46:43.629Z,17.60
2022-09-03T07:49:10.940Z,17.70
2022-09-03T07:51:39.148Z,17.80
2022-09-03T07:54:09.895Z,17.90
2022-09-03T07:56:37.484Z,18.00
2022-09-03T07:59:05.424Z,18.10
2022-09-03T08:01:33.139Z,18.20
2022-09-03T08:04:01.292Z,18.20
2022-09-03T08:06:29.297Z,18.40
2022-09-03T08:09:03.730Z,18.40
2022-09-03T08:11:39.469Z,18.60
2022-09-03T08:14:09.104Z,19.40
2022-09-03T08:16:38.538Z,20.90
2022-09-03T08:19:05.687Z,22.40
2022-09-03T08:21:32.508Z,23.70
2022-09-03T08:24:05.699Z,24.70
2022-09-03T08:26:37.823Z,25.60
2022-09-03T08:29:05.911Z,26.20
2022-09-03T08:31:33.705Z,26.60
2022-09-03T08:34:06.396Z,26.50
2022-09-03T08:36:35.848Z,26.90
2022-09-03T08:39:04.507Z,27.50
2022-09-03T08:42:10.009Z,27.90
2022-09-03T08:44:56.763Z,28.30
2022-09-03T08:47:34.045Z,28.70
2022-09-03T08:50:03.630Z,28.70
2022-09-03T08:52:49.910Z,28.80
2022-09-03T08:55:28.749Z,28.90
2022-09-03T08:58:03.885Z,29.00
2022-09-03T09:00:49.756Z,29.00
2022-09-03T09:03:31.532Z,28.90
2022-09-03T09:06:21.202Z,28.80
2022-09-03T09:08:53.870Z,28.40
2022-09-03T09:11:38.274Z,28.20
2022-09-03T09:14:15.765Z,28.20
2022-09-03T09:17:00.045Z,28.00
2022-09-03T09:20:14.921Z,28.00
2022-09-03T09:22:47.289Z,27.90
2022-09-03T09:25:19.287Z,28.00
2022-09-03T09:27:58.593Z,27.90
2022-09-03T09:30:25.393Z,27.90
2022-09-03T09:32:52.370Z,27.40
2022-09-03T09:35:19.418Z,27.50
2022-09-03T09:37:50.526Z,27.60
2022-09-03T09:40:33.886Z,27.60
2022-09-03T09:43:15.166Z,27.60
2022-09-03T09:45:48.134Z,27.80
2022-09-03T09:48:29.910Z,28.10
2022-09-03T09:51:06.173Z,28.20
2022-09-03T09:53:33.165Z,28.30
2022-09-03T09:56:00.407Z,28.10
2022-09-03T09:58:30.797Z,28.00
2022-09-03T10:01:14.770Z,28.00
2022-09-03T10:03:56.839Z,28.10
2022-09-03T10:06:46.939Z,28.10
2022-09-03T10:09:17.118Z,28.20
2022-09-03T10:11:55.269Z,28.30
2022-09-03T10:14:28.654Z,28.40
2022-09-03T10:17:04.328Z,28.50
2022-09-03T10:20:13.422Z,28.40
2022-09-03T10:22:56.488Z,28.60
2022-09-03T10:25:29.223Z,28.50
2022-09-03T10:27:57.015Z,28.40
2022-09-03T10:30:26.598Z,28.40
2022-09-03T10:33:16.759Z,28.40
2022-09-03T10:35:53.093Z,28.60
2022-09-03T10:38:37.908Z,28.50
2022-09-03T10:41:22.900Z,28.70
2022-09-03T10:44:35.331Z,28.70
2022-09-03T10:47:31.879Z,28.70
2022-09-03T10:50:15.969Z,28.80
2022-09-03T10:52:57.703Z,28.70
2022-09-03T10:55:36.341Z,28.70
2022-09-03T10:58:38.270Z,28.70
2022-09-03T11:01:32.913Z,28.70
2022-09-03T11:04:17.726Z,28.60
2022-09-03T11:07:02.822Z,28.40
2022-09-03T11:09:39.855Z,28.50
2022-09-03T11:12:12.277Z,28.60
2022-09-03T11:14:44.915Z,28.50
2022-09-03T11:17:27.993Z,28.40
2022-09-03T11:20:09.804Z,28.30
2022-09-03T11:22:38.974Z,28.20
2022-09-03T11:25:07.367Z,28.30
2022-09-03T11:27:47.357Z,28.30
2022-09-03T11:30:23.499Z,28.40
2022-09-03T11:32:56.021Z,28.50
2022-09-03T11:35:31.613Z,28.40
2022-09-03T11:38:04.787Z,28.40
2022-09-03T11:40:37.837Z,28.20
2022-09-03T11:43:23.933Z,28.10
2022-09-03T11:46:06.936Z,28.10
2022-09-03T11:48:48.077Z,28.30
2022-09-03T11:51:21.513Z,28.20
2022-09-03T11:54:01.261Z,28.00
2022-09-03T11:56:29.686Z,28.00
2022-09-03T11:59:17.887Z,28.00
2022-09-03T12:01:52.386Z,28.20
2022-09-03T12:04:25.412Z,28.10
2022-09-03T12:07:17.583Z,28.20
2022-09-03T12:09:51.456Z,27.90
2022-09-03T12:12:56.177Z,28.00
2022-09-03T12:15:47.666Z,28.10
2022-09-03T12:18:18.983Z,28.10
2022-09-03T12:21:05.139Z,28.10
2022-09-03T12:23:50.158Z,28.00
2022-09-03T12:26:19.861Z,28.00
2022-09-03T12:28:55.439Z,28.00
2022-09-03T12:31:25.376Z,28.10
2022-09-03T12:33:59.184Z,28.20
2022-09-03T12:36:37.088Z,28.20
2022-09-03T12:42:25.640Z,28.20
2022-09-03T12:44:52.391Z,28.40
2022-09-03T12:47:38.006Z,28.30
2022-09-03T12:50:09.295Z,28.20
2022-09-03T12:52:56.608Z,28.30
2022-09-03T12:55:43.448Z,28.30
2022-09-03T12:58:27.154Z,28.30
2022-09-03T13:01:09.208Z,28.30
2022-09-03T13:03:43.865Z,28.30
2022-09-03T13:06:14.895Z,28.00
2022-09-03T13:08:50.238Z,28.10
2022-09-03T13:11:21.506Z,28.10
2022-09-03T13:14:12.630Z,28.10
2022-09-03T13:16:50.118Z,28.00
2022-09-03T13:19:51.773Z,28.10
2022-09-03T13:22:47.413Z,28.00
2022-09-03T13:25:19.600Z,28.00
2022-09-03T13:28:03.911Z,27.90
2022-09-03T13:30:52.193Z,28.00
2022-09-03T13:33:29.342Z,28.10
2022-09-03T13:36:05.540Z,28.00
2022-09-03T13:38:37.257Z,28.00
2022-09-03T13:41:19.681Z,28.00
2022-09-03T13:43:50.626Z,28.00
2022-09-03T13:46:25.076Z,28.10
2022-09-03T13:49:27.583Z,28.10
2022-09-03T13:52:01.807Z,28.10
2022-09-03T13:54:50.491Z,28.00
2022-09-03T13:57:52.597Z,27.90
2022-09-03T14:00:30.280Z,28.00
2022-09-03T14:03:26.685Z,28.00
2022-09-03T14:06:18.418Z,28.10
2022-09-03T14:09:00.929Z,28.20
2022-09-03T14:11:49.145Z,28.20
2022-09-03T14:14:39.594Z,28.20
2022-09-03T14:17:31.964Z,28.20
2022-09-03T14:20:07.004Z,28.20
2022-09-03T14:22:45.437Z,28.10
2022-09-03T14:25:17.355Z,28.10
2022-09-03T14:27:44.438Z,28.00
2022-09-03T14:30:17.026Z,28.00
2022-09-03T14:32:47.762Z,27.90
2022-09-03T14:35:36.591Z,28.00
2022-09-03T14:38:23.878Z,27.90
2022-09-03T14:40:58.321Z,27.90
2022-09-03T14:44:09.403Z,28.10
2022-09-03T14:46:43.285Z,27.90
2022-09-03T14:49:14.427Z,27.80
2022-09-03T14:52:06.050Z,27.80
2022-09-03T14:55:01.821Z,27.80
2022-09-03T14:57:31.408Z,27.70
2022-09-03T15:00:06.632Z,27.50
2022-09-03T15:02:33.661Z,27.40
2022-09-03T15:05:16.164Z,27.50
2022-09-03T15:07:56.067Z,27.50
2022-09-03T15:10:51.148Z,27.50
2022-09-03T15:13:30.807Z,27.50
2022-09-03T15:16:28.435Z,27.40
2022-09-03T15:19:13.777Z,27.30
2022-09-03T15:21:46.293Z,27.20
2022-09-03T15:24:31.650Z,27.10
2022-09-03T15:27:06.787Z,27.00
2022-09-03T15:29:33.333Z,27.00
2022-09-03T15:32:42.258Z,27.10
2022-09-03T15:35:18.850Z,27.20
2022-09-03T15:37:56.387Z,27.20
2022-09-03T15:40:25.983Z,27.30
2022-09-03T15:43:04.326Z,27.30
2022-09-03T15:45:39.422Z,27.40
2022-09-03T15:48:28.082Z,27.40
2022-09-03T15:51:10.475Z,27.40
2022-09-03T15:53:50.115Z,27.40
2022-09-03T15:56:28.183Z,27.20
2022-09-03T15:59:03.330Z,27.10
2022-09-03T16:01:45.859Z,27.10
2022-09-03T16:04:46.057Z,27.10
2022-09-03T16:07:37.409Z,27.10
2022-09-03T16:10:30.814Z,26.90
2022-09-03T16:13:28.809Z,26.70
2022-09-03T16:16:03.761Z,26.70
2022-09-03T16:18:45.600Z,26.70
2022-09-03T16:21:29.866Z,26.70
2022-09-03T16:24:20.401Z,26.70
2022-09-03T16:26:46.973Z,26.70
2022-09-03T16:29:15.855Z,26.70
2022-09-03T16:32:19.259Z,26.70
2022-09-03T16:35:07.562Z,26.60
2022-09-03T16:38:00.793Z,26.60
2022-09-03T16:41:08.858Z,26.50
2022-09-03T16:43:54.568Z,26.50
2022-09-03T16:46:49.777Z,26.40
2022-09-03T16:49:36.019Z,26.40
2022-09-03T16:52:19.081Z,26.30
2022-09-03T16:55:18.625Z,26.20
2022-09-03T16:58:10.715Z,26.20
2022-09-03T17:00:58.099Z,26.20
2022-09-03T17:03:48.154Z,26.20
2022-09-03T17:06:29.772Z,26.10
2022-09-03T17:09:27.603Z,26.00
2022-09-03T17:12:37.508Z,25.90
2022-09-03T17:15:17.055Z,25.90
2022-09-03T17:17:49.562Z,25.70
2022-09-03T17:20:49.533Z,25.70
2022-09-03T17:23:49.671Z,25.70
2022-09-03T17:26:16.719Z,25.70
2022-09-03T17:29:04.322Z,25.60
2022-09-03T17:32:00.235Z,25.60
2022-09-03T17:35:04.372Z,25.60
2022-09-03T17:37:33.761Z,25.50
2022-09-03T17:40:17.237Z,25.40
2022-09-03T17:43:02.078Z,25.40
2022-09-03T17:45:49.962Z,25.30
2022-09-03T17:48:49.631Z,25.20
2022-09-03T17:51:39.463Z,25.20
2022-09-03T17:54:33.807Z,25.10
2022-09-03T17:57:37.785Z,25.10
2022-09-03T18:00:22.659Z,25.00
2022-09-03T18:03:07.079Z,24.90
2022-09-03T18:05:46.001Z,24.80
2022-09-03T18:08:24.728Z,24.70
2022-09-03T18:11:12.809Z,24.70
2022-09-03T18:14:06.939Z,24.70
2022-09-03T18:16:37.428Z,24.60
2022-09-03T18:19:29.157Z,24.50
2022-09-03T18:22:20.849Z,24.40
2022-09-03T18:25:13.350Z,24.40
2022-09-03T18:28:13.704Z,24.30
2022-09-03T18:30:59.199Z,24.30
2022-09-03T18:33:45.216Z,24.20
2022-09-03T18:36:31.723Z,24.20
2022-09-03T18:39:33.044Z,24.10
2022-09-03T18:42:40.618Z,24.00
2022-09-03T18:49:00.841Z,24.00
2022-09-03T18:52:10.143Z,23.90
2022-09-03T18:55:20.309Z,23.90
2022-09-03T18:58:14.791Z,23.80
2022-09-03T19:01:21.195Z,23.80
2022-09-03T19:04:33.949Z,23.70
2022-09-03T19:07:33.541Z,23.70
2022-09-03T19:10:26.668Z,23.50
2022-09-03T19:13:42.778Z,23.40
2022-09-03T19:16:36.396Z,23.40
2022-09-03T19:19:42.821Z,23.40
2022-09-03T19:22:29.901Z,23.30
2022-09-03T19:25:30.649Z,23.30
2022-09-03T19:28:37.464Z,23.20
2022-09-03T19:32:01.946Z,23.20
2022-09-03T19:35:19.410Z,23.10
2022-09-03T19:38:19.131Z,23.10
2022-09-03T19:41:21.253Z,23.00
2022-09-03T19:44:35.473Z,22.90
2022-09-03T19:47:22.867Z,22.90
2022-09-03T19:50:31.034Z,22.90
2022-09-03T19:53:20.367Z,22.90
2022-09-03T19:56:12.490Z,22.80
2022-09-03T19:59:29.838Z,22.80
2022-09-03T20:02:15.342Z,22.70
2022-09-03T20:05:05.008Z,22.70
2022-09-03T20:07:52.422Z,22.60
2022-09-03T20:10:23.157Z,22.50
2022-09-03T20:13:08.273Z,22.50
2022-09-03T20:16:07.179Z,22.50
2022-09-03T20:18:58.566Z,22.50
2022-09-03T20:21:39.899Z,22.40
2022-09-03T20:24:11.138Z,22.30
2022-09-03T20:26:55.657Z,22.30
2022-09-03T20:30:02.415Z,22.30
2022-09-03T20:32:55.870Z,22.20
2022-09-03T20:36:18.574Z,22.10
2022-09-03T20:38:50.741Z,22.10
2022-09-03T20:41:40.777Z,22.00
2022-09-03T20:44:18.859Z,22.00
2022-09-03T20:47:21.254Z,21.90
2022-09-03T20:50:43.604Z,21.90
2022-09-03T20:53:22.607Z,21.80
2022-09-03T20:55:53.065Z,21.70
2022-09-03T20:58:52.185Z,21.70
2022-09-03T21:01:51.089Z,21.70
2022-09-03T21:04:25.218Z,21.70
2022-09-03T21:07:14.582Z,21.60
2022-09-03T21:10:01.824Z,21.60
2022-09-03T21:12:34.044Z,21.50
2022-09-03T21:15:19.077Z,21.50
2022-09-03T21:18:04.298Z,21.50
2022-09-03T21:20:44.899Z,21.50
2022-09-03T21:23:25.559Z,21.40
2022-09-03T21:25:59.810Z,21.40
2022-09-03T21:28:33.500Z,21.30
2022-09-03T21:31:04.810Z,21.20
2022-09-03T21:33:39.388Z,21.20
2022-09-03T21:36:23.173Z,21.20
2022-09-03T21:38:58.142Z,21.10
2022-09-03T21:41:44.331Z,21.10
2022-09-03T21:44:14.957Z,21.00
2022-09-03T21:47:05.751Z,21.00
2022-09-03T21:49:40.585Z,21.00
2022-09-03T21:52:12.868Z,20.90
2022-09-03T21:54:39.617Z,20.90
2022-09-03T21:57:18.890Z,20.90
2022-09-03T22:00:04.661Z,20.90
2022-09-03T22:02:32.776Z,20.90
2022-09-03T22:05:01.141Z,20.90
2022-09-03T22:07:53.164Z,20.80
2022-09-03T22:10:42.013Z,20.90
2022-09-03T22:13:32.515Z,20.80
2022-09-03T22:16:16.897Z,20.70
2022-09-03T22:18:43.988Z,20.70
2022-09-03T22:21:41.022Z,20.70
2022-09-03T22:24:24.463Z,20.70
2022-09-03T22:27:25.245Z,20.60
2022-09-03T22:30:08.455Z,20.60
2022-09-03T22:32:37.866Z,20.50
2022-09-03T22:35:31.862Z,20.50
2022-09-03T22:38:20.150Z,20.50
2022-09-03T22:40:52.694Z,20.50
2022-09-03T22:43:45.815Z,20.50
2022-09-03T22:46:15.678Z,20.40
2022-09-03T22:49:01.567Z,20.40
2022-09-03T22:51:34.519Z,20.40
2022-09-03T22:54:23.613Z,20.30
2022-09-03T22:56:52.602Z,20.30
2022-09-03T22:59:26.372Z,20.20
2022-09-03T23:02:08.635Z,20.10
2022-09-03T23:05:06.463Z,20.10
2022-09-03T23:07:54.772Z,20.00
2022-09-03T23:10:27.754Z,20.00
2022-09-03T23:13:10.730Z,20.00
2022-09-03T23:15:39.500Z,19.90
2022-09-03T23:18:27.045Z,19.80
2022-09-03T23:21:06.177Z,19.90
2022-09-03T23:23:50.431Z,19.80
2022-09-03T23:26:43.043Z,19.70
2022-09-03T23:29:20.701Z,19.70
2022-09-03T23:31:47.495Z,19.60
2022-09-03T23:34:14.228Z,19.50
2022-09-03T23:40:02.205Z,19.50
2022-09-03T23:42:44.922Z,19.50
2022-09-03T23:45:31.805Z,19.40
2022-09-03T23:48:21.804Z,19.30
2022-09-03T23:51:17.799Z,19.30
2022-09-03T23:54:13.550Z,19.20
2022-09-03T23:56:52.391Z,19.10
2022-09-03T23:59:29.741Z,19.10
